Terminal Aerodrome Forecast
Issued by NWS

Home | Current Version | Previous Version | Text Only | Print | Product List | Glossary On
Versions: 1 2 3 4 5 6 7 8 9 10 11 12 13 14 15 16 17 18 19 20 21 22 23 24 25
000
FTUS41 KCAR 262336
TAFHUL
TAF
KHUL 262336Z 2700/2724 02005KT P6SM BKN250
     FM270300 03009KT P6SM SCT100 OVC180
     FM270730 04011G18KT P6SM OVC080
     FM271200 05013G22KT 2SM -SN OVC025
     FM271330 05017G24KT 3/4SM -SN BLSN OVC010
     FM271530 04019G26KT 1/4SM +SN BLSN OVC005
     FM272100 03019G26KT 3/4SM -SN BLSN OVC005=

USA.gov is the U.S. government's official web portal to all federal, state and local government web resources and services.